Private Wetterstation Sandau
Wetterdaten: Samstag, 10.11.2012
Datum Zeit Temp. A. Feuchte A. Luftdruck Regen Wind Richtung Richtung Taupunkt Windchill
10.11.2012 00:01 7,6 C 83 % 1012,6 hPa 0,0 l/m 3,6 km/h (1 Bft) S-SO 157 4,9 C 7,6 C
10.11.2012 00:06 7,6 C 82 % 1012,5 hPa 0,0 l/m 4,0 km/h (1 Bft) SO 135 4,7 C 7,6 C
10.11.2012 00:11 7,6 C 82 % 1012,6 hPa 0,0 l/m 4,7 km/h (1 Bft) S-SO 157 4,7 C 7,1 C
10.11.2012 00:16 7,6 C 82 % 1012,7 hPa 0,0 l/m 3,6 km/h (1 Bft) S-SO 157 4,7 C 7,6 C
10.11.2012 00:21 7,5 C 82 % 1012,4 hPa 0,0 l/m 7,6 km/h (2 Bft) SO 135 4,6 C 6,2 C
10.11.2012 00:26 7,5 C 82 % 1012,4 hPa 0,0 l/m 13,0 km/h (3 Bft) S-SO 157 4,6 C 5,1 C
10.11.2012 00:31 7,5 C 82 % 1012,1 hPa 0,0 l/m 6,5 km/h (2 Bft) S 180 4,6 C 6,5 C
10.11.2012 00:36 7,4 C 82 % 1012,2 hPa 0,0 l/m 5,4 km/h (1 Bft) SO 135 4,5 C 6,7 C
10.11.2012 00:41 7,4 C 82 % 1011,9 hPa 0,0 l/m 5,4 km/h (1 Bft) SO 135 4,5 C 6,7 C
10.11.2012 00:46 7,4 C 82 % 1011,7 hPa 0,0 l/m 9,7 km/h (2 Bft) SO 135 4,5 C 5,6 C
10.11.2012 00:51 7,4 C 82 % 1011,7 hPa 0,0 l/m 10,4 km/h (2 Bft) SO 135 4,5 C 5,4 C
10.11.2012 00:56 7,4 C 82 % 1011,8 hPa 0,0 l/m 3,6 km/h (1 Bft) S-SO 157 4,5 C 7,4 C
10.11.2012 01:01 7,3 C 82 % 1011,8 hPa 0,0 l/m 6,8 km/h (2 Bft) S-SO 157 4,4 C 6,1 C
10.11.2012 01:06 7,3 C 82 % 1011,5 hPa 0,0 l/m 4,0 km/h (1 Bft) S-SO 157 4,4 C 7,3 C
10.11.2012 01:11 7,3 C 81 % 1011,7 hPa 0,0 l/m 4,7 km/h (1 Bft) S 180 4,3 C 6,8 C
10.11.2012 01:16 7,3 C 81 % 1011,6 hPa 0,0 l/m 5,0 km/h (1 Bft) S-SW 202 4,3 C 6,7 C
10.11.2012 01:21 7,3 C 81 % 1011,5 hPa 0,0 l/m 4,0 km/h (1 Bft) SO 135 4,3 C 7,3 C
10.11.2012 01:26 7,3 C 81 % 1011,5 hPa 0,0 l/m 4,7 km/h (1 Bft) S-SO 157 4,3 C 6,8 C
10.11.2012 01:31 7,3 C 81 % 1011,5 hPa 0,0 l/m 4,3 km/h (1 Bft) S 180 4,3 C 7,3 C
10.11.2012 01:36 7,2 C 81 % 1011,4 hPa 0,0 l/m 4,3 km/h (1 Bft) SO 135 4,2 C 7,2 C
10.11.2012 01:41 7,2 C 81 % 1011,5 hPa 0,0 l/m 3,6 km/h (1 Bft) S-SO 157 4,2 C 7,2 C
10.11.2012 01:46 7,2 C 81 % 1011,5 hPa 0,0 l/m 9,4 km/h (2 Bft) SO 135 4,2 C 5,4 C
10.11.2012 01:51 7,1 C 81 % 1011,4 hPa 0,0 l/m 4,3 km/h (1 Bft) SO 135 4,1 C 7,1 C
10.11.2012 01:56 7,1 C 81 % 1011,2 hPa 0,0 l/m 7,2 km/h (2 Bft) S 180 4,1 C 5,8 C
10.11.2012 02:01 7,1 C 81 % 1010,9 hPa 0,0 l/m 5,4 km/h (1 Bft) S-SW 202 4,1 C 6,3 C
10.11.2012 02:06 7,0 C 81 % 1011,0 hPa 0,0 l/m 13,3 km/h (3 Bft) SO 135 4,0 C 4,5 C
10.11.2012 02:11 6,9 C 81 % 1010,8 hPa 0,0 l/m 5,0 km/h (1 Bft) O-SO 112 3,9 C 6,2 C
10.11.2012 02:16 6,9 C 81 % 1010,7 hPa 0,0 l/m 3,2 km/h (1 Bft) S-SO 157 3,9 C 6,9 C
10.11.2012 02:21 6,9 C 81 % 1010,7 hPa 0,0 l/m 2,9 km/h (1 Bft) SO 135 3,9 C 6,9 C
10.11.2012 02:26 6,9 C 81 % 1010,8 hPa 0,0 l/m 3,2 km/h (1 Bft) O-SO 112 3,9 C 6,9 C
10.11.2012 02:31 6,9 C 81 % 1010,8 hPa 0,0 l/m 5,8 km/h (2 Bft) S-SW 202 3,9 C 6,0 C
10.11.2012 02:36 6,8 C 81 % 1010,6 hPa 0,0 l/m 5,4 km/h (1 Bft) S-SO 157 3,8 C 6,0 C
10.11.2012 02:41 6,8 C 81 % 1010,6 hPa 0,0 l/m 5,8 km/h (2 Bft) S-SO 157 3,8 C 5,9 C
10.11.2012 02:46 6,8 C 81 % 1010,7 hPa 0,0 l/m 4,3 km/h (1 Bft) S 180 3,8 C 6,8 C
10.11.2012 02:51 6,8 C 81 % 1010,6 hPa 0,0 l/m 3,6 km/h (1 Bft) S-SO 157 3,8 C 6,8 C
10.11.2012 02:56 6,8 C 81 % 1010,5 hPa 0,0 l/m 6,5 km/h (2 Bft) S-SW 202 3,8 C 5,6 C
10.11.2012 03:01 6,8 C 81 % 1010,3 hPa 0,0 l/m 2,5 km/h (1 Bft) SO 135 3,8 C 6,8 C
10.11.2012 03:06 6,8 C 80 % 1010,2 hPa 0,0 l/m 6,5 km/h (2 Bft) S-SO 157 3,6 C 5,6 C
10.11.2012 03:11 6,8 C 80 % 1010,2 hPa 0,0 l/m 9,7 km/h (2 Bft) S-SO 157 3,6 C 4,9 C
10.11.2012 03:16 6,8 C 80 % 1010,2 hPa 0,0 l/m 4,3 km/h (1 Bft) S 180 3,6 C 6,8 C
10.11.2012 03:21 6,8 C 80 % 1010,1 hPa 0,0 l/m 10,1 km/h (2 Bft) S-SO 157 3,6 C 4,8 C
10.11.2012 03:26 6,8 C 80 % 1009,9 hPa 0,0 l/m 4,7 km/h (1 Bft) S-SW 202 3,6 C 6,2 C
10.11.2012 03:31 6,8 C 80 % 1009,8 hPa 0,0 l/m 15,8 km/h (3 Bft) S-SO 157 3,6 C 3,9 C
10.11.2012 03:36 6,7 C 80 % 1009,8 hPa 0,0 l/m 3,6 km/h (1 Bft) S-SO 157 3,5 C 6,7 C
10.11.2012 03:41 6,6 C 80 % 1009,8 hPa 0,0 l/m 5,4 km/h (1 Bft) SO 135 3,4 C 5,8 C
10.11.2012 03:46 6,5 C 80 % 1009,8 hPa 0,0 l/m 4,0 km/h (1 Bft) O-SO 112 3,3 C 6,5 C
10.11.2012 03:51 6,5 C 80 % 1009,8 hPa 0,0 l/m 4,3 km/h (1 Bft) S-SO 157 3,3 C 6,5 C
10.11.2012 03:56 6,4 C 80 % 1009,6 hPa 0,0 l/m 0,0 km/h (0 Bft) SO 135 3,2 C 6,4 C
10.11.2012 04:01 6,3 C 80 % 1009,6 hPa 0,0 l/m 4,0 km/h (1 Bft) S-SO 157 3,1 C 6,3 C
10.11.2012 04:06 6,3 C 80 % 1009,5 hPa 0,0 l/m 9,7 km/h (2 Bft) S-SO 157 3,1 C 4,3 C
10.11.2012 04:11 6,2 C 80 % 1009,7 hPa 0,0 l/m 1,8 km/h (1 Bft) S-SO 157 3,0 C 6,2 C
10.11.2012 04:16 6,1 C 80 % 1009,5 hPa 0,0 l/m 5,0 km/h (1 Bft) SW 225 2,9 C 5,3 C
10.11.2012 04:21 6,1 C 81 % 1009,3 hPa 0,0 l/m 8,6 km/h (2 Bft) S 180 3,1 C 4,3 C
10.11.2012 04:26 6,1 C 81 % 1009,5 hPa 0,0 l/m 4,0 km/h (1 Bft) SO 135 3,1 C 6,1 C
10.11.2012 04:31 6,0 C 81 % 1009,2 hPa 0,0 l/m 7,2 km/h (2 Bft) SO 135 3,0 C 4,5 C
10.11.2012 04:36 5,9 C 81 % 1009,2 hPa 0,0 l/m 8,3 km/h (2 Bft) S-SO 157 2,9 C 4,1 C
10.11.2012 04:41 5,9 C 81 % 1009,1 hPa 0,0 l/m 7,9 km/h (2 Bft) SO 135 2,9 C 4,2 C
10.11.2012 04:46 5,8 C 81 % 1009,2 hPa 0,0 l/m 11,9 km/h (2 Bft) SO 135 2,8 C 3,2 C
10.11.2012 04:51 5,8 C 81 % 1009,2 hPa 0,0 l/m 7,6 km/h (2 Bft) SO 135 2,8 C 4,2 C
10.11.2012 04:56 5,6 C 81 % 1008,9 hPa 0,0 l/m 5,8 km/h (2 Bft) SO 135 2,6 C 4,5 C
10.11.2012 05:01 5,6 C 81 % 1008,9 hPa 0,0 l/m 5,8 km/h (2 Bft) S-SO 157 2,6 C 4,5 C
10.11.2012 05:06 5,5 C 81 % 1008,8 hPa 0,0 l/m 9,4 km/h (2 Bft) SO 135 2,5 C 3,4 C
10.11.2012 05:11 5,4 C 82 % 1008,8 hPa 0,0 l/m 6,1 km/h (2 Bft) SO 135 2,6 C 4,2 C
10.11.2012 05:16 5,3 C 82 % 1008,6 hPa 0,0 l/m 11,5 km/h (2 Bft) SO 135 2,5 C 2,7 C
10.11.2012 05:21 5,3 C 82 % 1008,7 hPa 0,0 l/m 8,3 km/h (2 Bft) SO 135 2,5 C 3,4 C
10.11.2012 05:26 5,2 C 83 % 1008,6 hPa 0,0 l/m 8,3 km/h (2 Bft) SO 135 2,6 C 3,3 C
10.11.2012 05:31 5,1 C 83 % 1008,7 hPa 0,0 l/m 16,9 km/h (3 Bft) SO 135 2,5 C 1,6 C
10.11.2012 05:36 5,0 C 83 % 1008,4 hPa 0,0 l/m 6,1 km/h (2 Bft) S-SO 157 2,4 C 3,7 C
10.11.2012 05:41 5,0 C 83 % 1008,5 hPa 0,0 l/m 3,2 km/h (1 Bft) O-SO 112 2,4 C 5,0 C
10.11.2012 05:46 4,9 C 83 % 1008,5 hPa 0,0 l/m 6,8 km/h (2 Bft) SO 135 2,3 C 3,4 C
10.11.2012 05:51 4,9 C 83 % 1008,7 hPa 0,0 l/m 0,0 km/h (0 Bft) SO 135 2,3 C 4,9 C
10.11.2012 05:56 4,9 C 83 % 1008,3 hPa 0,0 l/m 6,1 km/h (2 Bft) SO 135 2,3 C 3,6 C
10.11.2012 06:01 4,8 C 83 % 1008,1 hPa 0,0 l/m 6,1 km/h (2 Bft) O-SO 112 2,2 C 3,5 C
10.11.2012 06:06 4,9 C 84 % 1008,1 hPa 0,0 l/m 5,4 km/h (1 Bft) S-SO 157 2,4 C 3,8 C
10.11.2012 06:11 4,9 C 84 % 1008,0 hPa 0,0 l/m 10,1 km/h (2 Bft) SO 135 2,4 C 2,5 C
10.11.2012 06:16 4,9 C 84 % 1008,0 hPa 0,0 l/m 3,6 km/h (1 Bft) SO 135 2,4 C 4,9 C
10.11.2012 06:21 5,0 C 84 % 1008,0 hPa 0,0 l/m 2,9 km/h (1 Bft) SO 135 2,5 C 5,0 C
10.11.2012 06:26 5,0 C 84 % 1008,0 hPa 0,0 l/m 4,7 km/h (1 Bft) SO 135 2,5 C 4,2 C
10.11.2012 06:31 5,0 C 84 % 1008,0 hPa 0,0 l/m 3,2 km/h (1 Bft) SO 135 2,5 C 5,0 C
10.11.2012 06:36 5,0 C 84 % 1008,0 hPa 0,0 l/m 2,2 km/h (1 Bft) SO 135 2,5 C 5,0 C
10.11.2012 06:41 5,0 C 84 % 1008,1 hPa 0,0 l/m 0,0 km/h (0 Bft) O-SO 112 2,5 C 5,0 C
10.11.2012 06:46 4,9 C 84 % 1008,0 hPa 0,0 l/m 0,0 km/h (0 Bft) O-SO 112 2,4 C 4,9 C
10.11.2012 06:51 4,9 C 84 % 1008,1 hPa 0,0 l/m 1,8 km/h (1 Bft) SO 135 2,4 C 4,9 C
10.11.2012 06:56 4,9 C 84 % 1008,1 hPa 0,0 l/m 2,5 km/h (1 Bft) SO 135 2,4 C 4,9 C
10.11.2012 07:01 4,8 C 84 % 1008,0 hPa 0,0 l/m 4,0 km/h (1 Bft) O-SO 112 2,3 C 4,8 C
10.11.2012 07:06 4,6 C 85 % 1007,8 hPa 0,0 l/m 5,8 km/h (2 Bft) SO 135 2,3 C 3,3 C
10.11.2012 07:11 4,5 C 85 % 1007,8 hPa 0,0 l/m 9,4 km/h (2 Bft) S-SO 157 2,2 C 2,2 C
10.11.2012 07:16 4,4 C 85 % 1007,8 hPa 0,0 l/m 4,3 km/h (1 Bft) O-SO 112 2,1 C 4,4 C
10.11.2012 07:21 4,3 C 85 % 1007,7 hPa 0,0 l/m 4,3 km/h (1 Bft) SO 135 2,0 C 4,3 C
10.11.2012 07:26 4,2 C 86 % 1007,6 hPa 0,0 l/m 4,0 km/h (1 Bft) O-SO 112 2,1 C 4,2 C
10.11.2012 07:31 4,1 C 86 % 1007,4 hPa 0,0 l/m 4,7 km/h (1 Bft) SO 135 2,0 C 3,2 C
10.11.2012 07:36 4,1 C 86 % 1007,4 hPa 0,0 l/m 5,8 km/h (2 Bft) SO 135 2,0 C 2,8 C
10.11.2012 07:41 4,1 C 86 % 1007,4 hPa 0,0 l/m 6,5 km/h (2 Bft) SO 135 2,0 C 2,5 C
10.11.2012 07:46 4,1 C 87 % 1007,2 hPa 0,0 l/m 7,6 km/h (2 Bft) SO 135 2,1 C 2,2 C
10.11.2012 07:51 4,1 C 87 % 1007,0 hPa 0,0 l/m 0,0 km/h (0 Bft) SO 135 2,1 C 4,1 C
10.11.2012 07:56 4,2 C 87 % 1007,0 hPa 0,0 l/m 3,6 km/h (1 Bft) SO 135 2,2 C 4,2 C
10.11.2012 08:01 4,2 C 87 % 1007,1 hPa 0,0 l/m 7,6 km/h (2 Bft) O-SO 112 2,2 C 2,3 C
10.11.2012 08:06 4,2 C 87 % 1007,0 hPa 0,0 l/m 2,2 km/h (1 Bft) O-SO 112 2,2 C 4,2 C
10.11.2012 08:11 4,2 C 87 % 1007,3 hPa 0,0 l/m 1,4 km/h (1 Bft) SO 135 2,2 C 4,2 C
10.11.2012 08:16 4,2 C 87 % 1007,4 hPa 0,0 l/m 3,2 km/h (1 Bft) O-SO 112 2,2 C 4,2 C
10.11.2012 08:21 4,2 C 87 % 1007,4 hPa 0,0 l/m 0,0 km/h (0 Bft) SO 135 2,2 C 4,2 C
10.11.2012 08:26 4,3 C 87 % 1007,3 hPa 0,0 l/m 0,0 km/h (0 Bft) SO 135 2,3 C 4,3 C
10.11.2012 08:31 4,4 C 87 % 1007,3 hPa 0,0 l/m 0,0 km/h (0 Bft) SO 135 2,4 C 4,4 C
10.11.2012 08:36 4,5 C 87 % 1007,4 hPa 0,0 l/m 3,2 km/h (1 Bft) SO 135 2,5 C 4,5 C
10.11.2012 08:41 4,6 C 87 % 1007,6 hPa 0,0 l/m 3,2 km/h (1 Bft) SO 135 2,6 C 4,6 C
10.11.2012 08:46 4,7 C 87 % 1007,4 hPa 0,0 l/m 5,8 km/h (2 Bft) S-SO 157 2,7 C 3,4 C
10.11.2012 08:51 4,9 C 86 % 1007,4 hPa 0,0 l/m 0,0 km/h (0 Bft) S-SO 157 2,8 C 4,9 C
10.11.2012 08:56 5,0 C 86 % 1007,5 hPa 0,0 l/m 3,6 km/h (1 Bft) SO 135 2,9 C 5,0 C
10.11.2012 09:01 5,2 C 86 % 1007,7 hPa 0,0 l/m 4,7 km/h (1 Bft) S-SO 157 3,1 C 4,4 C
10.11.2012 09:06 5,3 C 86 % 1007,8 hPa 0,0 l/m 5,4 km/h (1 Bft) SO 135 3,2 C 4,3 C
10.11.2012 09:11 5,5 C 85 % 1007,5 hPa 0,0 l/m 5,8 km/h (2 Bft) SO 135 3,2 C 4,4 C
10.11.2012 09:16 5,8 C 85 % 1007,4 hPa 0,0 l/m 4,0 km/h (1 Bft) S-SO 157 3,5 C 5,8 C
10.11.2012 09:21 5,9 C 84 % 1007,4 hPa 0,0 l/m 4,0 km/h (1 Bft) S 180 3,4 C 5,9 C
10.11.2012 09:26 6,2 C 84 % 1007,3 hPa 0,0 l/m 7,2 km/h (2 Bft) SO 135 3,7 C 4,8 C
10.11.2012 09:31 6,4 C 82 % 1007,2 hPa 0,0 l/m 8,3 km/h (2 Bft) S-SO 157 3,6 C 4,7 C
10.11.2012 09:36 6,6 C 82 % 1007,1 hPa 0,0 l/m 6,1 km/h (2 Bft) SO 135 3,8 C 5,5 C
10.11.2012 09:41 6,8 C 81 % 1006,9 hPa 0,0 l/m 5,0 km/h (1 Bft) SO 135 3,8 C 6,1 C
10.11.2012 09:46 6,8 C 81 % 1006,9 hPa 0,0 l/m 4,3 km/h (1 Bft) O-SO 112 3,8 C 6,8 C
10.11.2012 09:51 6,9 C 80 % 1006,9 hPa 0,0 l/m 5,4 km/h (1 Bft) SO 135 3,7 C 6,1 C
10.11.2012 09:56 7,0 C 81 % 1007,2 hPa 0,0 l/m 9,0 km/h (2 Bft) S 180 4,0 C 5,3 C
10.11.2012 10:01 7,1 C 81 % 1007,2 hPa 0,0 l/m 5,0 km/h (1 Bft) S-SO 157 4,1 C 6,5 C
10.11.2012 10:06 7,3 C 80 % 1007,0 hPa 0,0 l/m 4,0 km/h (1 Bft) S 180 4,1 C 7,3 C
10.11.2012 10:11 7,4 C 80 % 1006,7 hPa 0,0 l/m 3,6 km/h (1 Bft) S-SO 157 4,2 C 7,4 C
10.11.2012 10:16 7,5 C 79 % 1006,8 hPa 0,0 l/m 10,1 km/h (2 Bft) O-SO 112 4,1 C 5,6 C
10.11.2012 10:21 7,8 C 79 % 1006,5 hPa 0,0 l/m 4,0 km/h (1 Bft) SO 135 4,4 C 7,8 C
10.11.2012 10:26 7,9 C 78 % 1006,3 hPa 0,0 l/m 13,3 km/h (3 Bft) S-SO 157 4,3 C 5,6 C
10.11.2012 10:31 8,1 C 78 % 1006,3 hPa 0,0 l/m 5,0 km/h (1 Bft) S-SO 157 4,5 C 7,6 C
10.11.2012 10:36 8,3 C 77 % 1006,5 hPa 0,0 l/m 6,5 km/h (2 Bft) SO 135 4,5 C 7,4 C
10.11.2012 10:41 8,4 C 77 % 1006,6 hPa 0,0 l/m 3,2 km/h (1 Bft) S 180 4,6 C 8,4 C
10.11.2012 10:46 8,5 C 77 % 1006,6 hPa 0,0 l/m 0,0 km/h (0 Bft) SO 135 4,7 C 8,5 C
10.11.2012 10:51 8,5 C 77 % 1006,2 hPa 0,0 l/m 9,4 km/h (2 Bft) S-SW 202 4,7 C 7,0 C
10.11.2012 10:56 8,6 C 76 % 1006,3 hPa 0,0 l/m 8,3 km/h (2 Bft) O-SO 112 4,6 C 7,3 C
10.11.2012 11:01 8,6 C 76 % 1006,2 hPa 0,0 l/m 4,0 km/h (1 Bft) S-SO 157 4,6 C 8,6 C
10.11.2012 11:06 8,7 C 76 % 1006,2 hPa 0,0 l/m 4,7 km/h (1 Bft) S-SO 157 4,7 C 8,4 C
10.11.2012 11:11 8,8 C 76 % 1006,2 hPa 0,0 l/m 8,3 km/h (2 Bft) SW 225 4,8 C 7,5 C
10.11.2012 11:16 8,8 C 76 % 1006,1 hPa 0,0 l/m 3,2 km/h (1 Bft) S-SO 157 4,8 C 8,8 C
10.11.2012 11:21 8,8 C 76 % 1006,3 hPa 0,0 l/m 4,0 km/h (1 Bft) S 180 4,8 C 8,8 C
10.11.2012 11:26 8,8 C 75 % 1006,3 hPa 0,0 l/m 6,8 km/h (2 Bft) S-SO 157 4,6 C 7,9 C
10.11.2012 11:31 8,8 C 75 % 1006,3 hPa 0,0 l/m 6,1 km/h (2 Bft) S-SO 157 4,6 C 8,1 C
10.11.2012 11:36 8,8 C 75 % 1006,2 hPa 0,0 l/m 0,0 km/h (0 Bft) S 180 4,6 C 8,8 C
10.11.2012 11:41 8,7 C 75 % 1006,2 hPa 0,0 l/m 7,2 km/h (2 Bft) SO 135 4,5 C 7,7 C
10.11.2012 11:46 8,7 C 75 % 1006,0 hPa 0,0 l/m 5,0 km/h (1 Bft) S 180 4,5 C 8,3 C
10.11.2012 11:51 8,6 C 76 % 1006,1 hPa 0,0 l/m 1,4 km/h (1 Bft) SO 135 4,6 C 8,6 C
10.11.2012 11:56 8,8 C 76 % 1006,1 hPa 0,0 l/m 6,1 km/h (2 Bft) SO 135 4,8 C 8,1 C
10.11.2012 12:01 8,9 C 76 % 1006,1 hPa 0,0 l/m 4,7 km/h (1 Bft) S 180 4,9 C 8,6 C
10.11.2012 12:06 8,9 C 76 % 1005,9 hPa 0,0 l/m 4,7 km/h (1 Bft) S-SO 157 4,9 C 8,6 C
10.11.2012 12:11 8,9 C 75 % 1005,8 hPa 0,0 l/m 5,0 km/h (1 Bft) SO 135 4,7 C 8,5 C
10.11.2012 12:16 8,9 C 76 % 1005,6 hPa 0,0 l/m 9,4 km/h (2 Bft) SO 135 4,9 C 7,4 C
10.11.2012 12:21 8,9 C 75 % 1005,3 hPa 0,0 l/m 4,0 km/h (1 Bft) S-SO 157 4,7 C 8,9 C
10.11.2012 12:26 8,9 C 75 % 1005,3 hPa 0,0 l/m 7,6 km/h (2 Bft) SO 135 4,7 C 7,8 C
10.11.2012 12:31 8,9 C 75 % 1005,2 hPa 0,0 l/m 7,2 km/h (2 Bft) SO 135 4,7 C 7,9 C
10.11.2012 12:36 8,9 C 76 % 1005,2 hPa 0,0 l/m 4,7 km/h (1 Bft) SO 135 4,9 C 8,6 C
10.11.2012 12:41 8,9 C 76 % 1005,1 hPa 0,0 l/m 4,0 km/h (1 Bft) O-SO 112 4,9 C 8,9 C
10.11.2012 12:46 8,9 C 76 % 1005,1 hPa 0,0 l/m 8,3 km/h (2 Bft) O-SO 112 4,9 C 7,7 C
10.11.2012 12:51 8,9 C 77 % 1005,0 hPa 0,0 l/m 2,5 km/h (1 Bft) S-SO 157 5,1 C 8,9 C
10.11.2012 12:56 8,9 C 76 % 1005,0 hPa 0,0 l/m 6,1 km/h (2 Bft) SO 135 4,9 C 8,2 C
10.11.2012 13:01 8,9 C 76 % 1004,9 hPa 0,0 l/m 2,2 km/h (1 Bft) O-SO 112 4,9 C 8,9 C
10.11.2012 13:06 8,8 C 77 % 1004,9 hPa 0,0 l/m 6,5 km/h (2 Bft) SO 135 5,0 C 8,0 C
10.11.2012 13:11 8,9 C 77 % 1004,8 hPa 0,0 l/m 3,2 km/h (1 Bft) SO 135 5,1 C 8,9 C
10.11.2012 13:16 8,9 C 77 % 1004,8 hPa 0,0 l/m 1,4 km/h (1 Bft) SO 135 5,1 C 8,9 C
10.11.2012 13:21 8,8 C 77 % 1004,7 hPa 0,0 l/m 6,1 km/h (2 Bft) SO 135 5,0 C 8,1 C
10.11.2012 13:26 8,8 C 78 % 1004,8 hPa 0,0 l/m 4,0 km/h (1 Bft) S-SO 157 5,2 C 8,8 C
10.11.2012 13:31 8,8 C 78 % 1004,6 hPa 0,0 l/m 3,6 km/h (1 Bft) S-SO 157 5,2 C 8,8 C
10.11.2012 13:36 8,8 C 78 % 1004,7 hPa 0,0 l/m 3,6 km/h (1 Bft) SO 135 5,2 C 8,8 C
10.11.2012 13:41 8,8 C 78 % 1004,8 hPa 0,0 l/m 3,6 km/h (1 Bft) S-SO 157 5,2 C 8,8 C
10.11.2012 13:46 8,8 C 79 % 1004,8 hPa 0,0 l/m 3,2 km/h (1 Bft) S-SO 157 5,4 C 8,8 C
10.11.2012 13:51 8,9 C 79 % 1004,8 hPa 0,0 l/m 0,0 km/h (0 Bft) SO 135 5,5 C 8,9 C
10.11.2012 13:56 8,9 C 79 % 1004,7 hPa 0,0 l/m 0,0 km/h (0 Bft) SO 135 5,5 C 8,9 C
10.11.2012 14:01 8,9 C 79 % 1004,8 hPa 0,0 l/m 4,3 km/h (1 Bft) SO 135 5,5 C 8,9 C
10.11.2012 14:06 9,0 C 79 % 1004,7 hPa 0,0 l/m 4,0 km/h (1 Bft) SO 135 5,6 C 9,0 C
10.11.2012 14:11 9,1 C 79 % 1004,5 hPa 0,0 l/m 2,5 km/h (1 Bft) S-SO 157 5,7 C 9,1 C
10.11.2012 14:16 9,2 C 79 % 1004,4 hPa 0,0 l/m 5,0 km/h (1 Bft) S-SO 157 5,8 C 8,8 C
10.11.2012 14:21 9,2 C 79 % 1004,6 hPa 0,0 l/m 2,5 km/h (1 Bft) S-SO 157 5,8 C 9,2 C
10.11.2012 14:26 9,3 C 78 % 1004,5 hPa 0,0 l/m 5,8 km/h (2 Bft) S-SO 157 5,7 C 8,7 C
10.11.2012 14:31 9,3 C 78 % 1004,6 hPa 0,0 l/m 6,1 km/h (2 Bft) S-SO 157 5,7 C 8,6 C
10.11.2012 14:36 9,4 C 78 % 1004,5 hPa 0,0 l/m 2,5 km/h (1 Bft) S-SO 157 5,8 C 9,4 C
10.11.2012 14:41 9,4 C 78 % 1004,6 hPa 0,0 l/m 8,6 km/h (2 Bft) S-SW 202 5,8 C 8,2 C
10.11.2012 14:46 9,4 C 78 % 1004,6 hPa 0,0 l/m 10,4 km/h (2 Bft) S 180 5,8 C 7,8 C
10.11.2012 14:51 9,5 C 78 % 1004,5 hPa 0,0 l/m 4,7 km/h (1 Bft) S-SO 157 5,9 C 9,3 C
10.11.2012 14:56 9,5 C 78 % 1004,6 hPa 0,0 l/m 3,2 km/h (1 Bft) SO 135 5,9 C 9,5 C
10.11.2012 15:01 9,5 C 78 % 1004,5 hPa 0,0 l/m 3,6 km/h (1 Bft) S 180 5,9 C 9,5 C
10.11.2012 15:06 9,5 C 78 % 1004,5 hPa 0,0 l/m 2,5 km/h (1 Bft) S-SO 157 5,9 C 9,5 C
10.11.2012 15:11 9,5 C 78 % 1004,6 hPa 0,0 l/m 2,9 km/h (1 Bft) S 180 5,9 C 9,5 C
10.11.2012 15:16 9,5 C 79 % 1004,7 hPa 0,0 l/m 9,7 km/h (2 Bft) S 180 6,0 C 8,1 C
10.11.2012 15:21 9,4 C 79 % 1004,5 hPa 0,0 l/m 5,8 km/h (2 Bft) SW 225 5,9 C 8,8 C
10.11.2012 15:26 9,3 C 80 % 1004,5 hPa 0,0 l/m 5,8 km/h (2 Bft) S 180 6,0 C 8,7 C
10.11.2012 15:31 9,2 C 81 % 1004,4 hPa 0,0 l/m 10,8 km/h (2 Bft) S 180 6,1 C 7,5 C
10.11.2012 15:36 9,2 C 81 % 1004,5 hPa 0,0 l/m 4,0 km/h (1 Bft) S 180 6,1 C 9,2 C
10.11.2012 15:41 9,1 C 81 % 1004,5 hPa 0,0 l/m 2,2 km/h (1 Bft) SO 135 6,0 C 9,1 C
10.11.2012 15:46 9,1 C 82 % 1004,5 hPa 0,0 l/m 11,5 km/h (2 Bft) S-SO 157 6,2 C 7,3 C
10.11.2012 15:51 9,0 C 82 % 1004,5 hPa 0,0 l/m 5,4 km/h (1 Bft) SO 135 6,1 C 8,5 C
10.11.2012 15:56 8,9 C 83 % 1004,5 hPa 0,0 l/m 9,7 km/h (2 Bft) S 180 6,2 C 7,4 C
10.11.2012 16:01 8,9 C 83 % 1004,4 hPa 0,0 l/m 9,4 km/h (2 Bft) S-SO 157 6,2 C 7,4 C
10.11.2012 16:06 8,8 C 84 % 1004,3 hPa 0,0 l/m 6,1 km/h (2 Bft) S-SO 157 6,2 C 8,1 C
10.11.2012 16:11 8,8 C 84 % 1004,2 hPa 0,0 l/m 6,1 km/h (2 Bft) SO 135 6,2 C 8,1 C
10.11.2012 16:16 8,6 C 85 % 1004,2 hPa 0,0 l/m 6,1 km/h (2 Bft) SO 135 6,2 C 7,8 C
10.11.2012 16:21 8,6 C 85 % 1004,0 hPa 0,0 l/m 3,2 km/h (1 Bft) S-SO 157 6,2 C 8,6 C
10.11.2012 16:26 8,6 C 86 % 1004,1 hPa 0,5 l/m 8,6 km/h (2 Bft) SO 135 6,4 C 7,2 C
10.11.2012 16:31 8,5 C 86 % 1004,1 hPa 0,0 l/m 5,8 km/h (2 Bft) SO 135 6,3 C 7,8 C
10.11.2012 16:36 8,4 C 87 % 1004,0 hPa 0,0 l/m 2,9 km/h (1 Bft) S-SO 157 6,4 C 8,4 C
10.11.2012 16:41 8,4 C 87 % 1004,0 hPa 0,0 l/m 4,0 km/h (1 Bft) S 180 6,4 C 8,4 C
10.11.2012 16:46 8,4 C 88 % 1003,7 hPa 0,0 l/m 13,3 km/h (3 Bft) SO 135 6,5 C 6,2 C
10.11.2012 16:51 8,4 C 88 % 1003,7 hPa 0,5 l/m 8,3 km/h (2 Bft) S-SO 157 6,5 C 7,1 C
10.11.2012 16:56 8,4 C 89 % 1003,6 hPa 0,0 l/m 4,3 km/h (1 Bft) O 90 6,7 C 8,4 C
10.11.2012 17:01 8,4 C 89 % 1003,3 hPa 0,0 l/m 8,3 km/h (2 Bft) SO 135 6,7 C 7,1 C
10.11.2012 17:06 8,4 C 89 % 1003,1 hPa 0,5 l/m 5,0 km/h (1 Bft) S 180 6,7 C 7,9 C
10.11.2012 17:11 8,4 C 90 % 1003,0 hPa 0,0 l/m 7,9 km/h (2 Bft) SO 135 6,9 C 7,2 C
10.11.2012 17:16 8,4 C 90 % 1003,1 hPa 0,5 l/m 6,1 km/h (2 Bft) SO 135 6,9 C 7,6 C
10.11.2012 17:21 8,4 C 90 % 1003,0 hPa 0,0 l/m 4,0 km/h (1 Bft) SO 135 6,9 C 8,4 C
10.11.2012 17:26 8,4 C 90 % 1003,2 hPa 0,5 l/m 0,0 km/h (0 Bft) S-SO 157 6,9 C 8,4 C
10.11.2012 17:31 8,4 C 90 % 1003,3 hPa 0,0 l/m 5,8 km/h (2 Bft) NW 315 6,9 C 7,7 C
10.11.2012 17:36 8,4 C 90 % 1003,4 hPa 0,0 l/m 0,0 km/h (0 Bft) W 270 6,9 C 8,4 C
10.11.2012 17:41 8,4 C 90 % 1003,7 hPa 0,0 l/m 1,1 km/h (1 Bft) W 270 6,9 C 8,4 C
10.11.2012 17:46 8,4 C 90 % 1003,4 hPa 0,0 l/m 0,0 km/h (0 Bft) O-SO 112 6,9 C 8,4 C
10.11.2012 17:51 8,4 C 90 % 1003,6 hPa 0,0 l/m 3,6 km/h (1 Bft) SO 135 6,9 C 8,4 C
10.11.2012 17:56 8,4 C 90 % 1003,6 hPa 0,0 l/m 2,2 km/h (1 Bft) SO 135 6,9 C 8,4 C
10.11.2012 18:01 8,4 C 90 % 1003,5 hPa 0,0 l/m 2,9 km/h (1 Bft) SO 135 6,9 C 8,4 C
10.11.2012 18:06 8,4 C 90 % 1003,7 hPa 0,0 l/m 2,9 km/h (1 Bft) S-SO 157 6,9 C 8,4 C
10.11.2012 18:11 8,4 C 90 % 1003,8 hPa 0,0 l/m 5,8 km/h (2 Bft) SW 225 6,9 C 7,7 C
10.11.2012 18:16 8,4 C 90 % 1004,0 hPa 0,0 l/m 4,0 km/h (1 Bft) S 180 6,9 C 8,4 C
10.11.2012 18:21 8,4 C 90 % 1004,1 hPa 0,5 l/m 0,0 km/h (0 Bft) S-SO 157 6,9 C 8,4 C
10.11.2012 18:26 8,4 C 90 % 1004,0 hPa 0,0 l/m 4,0 km/h (1 Bft) S-SO 157 6,9 C 8,4 C
10.11.2012 18:31 8,4 C 90 % 1004,0 hPa 0,0 l/m 7,6 km/h (2 Bft) S-SO 157 6,9 C 7,2 C
10.11.2012 18:36 8,4 C 91 % 1003,9 hPa 0,0 l/m 2,5 km/h (1 Bft) S-SO 157 7,0 C 8,4 C
10.11.2012 18:41 8,4 C 91 % 1003,8 hPa 0,0 l/m 7,6 km/h (2 Bft) SO 135 7,0 C 7,2 C
10.11.2012 18:46 8,3 C 91 % 1003,7 hPa 0,0 l/m 2,9 km/h (1 Bft) O-SO 112 6,9 C 8,3 C
10.11.2012 18:51 8,3 C 91 % 1003,8 hPa 0,0 l/m 9,7 km/h (2 Bft) S 180 6,9 C 6,7 C
10.11.2012 18:56 8,3 C 91 % 1003,7 hPa 0,0 l/m 7,9 km/h (2 Bft) S 180 6,9 C 7,0 C
10.11.2012 19:01 8,3 C 91 % 1003,4 hPa 0,0 l/m 3,6 km/h (1 Bft) S-SW 202 6,9 C 8,3 C
10.11.2012 19:06 8,3 C 91 % 1003,4 hPa 0,0 l/m 8,6 km/h (2 Bft) S 180 6,9 C 6,9 C
10.11.2012 19:11 8,3 C 91 % 1003,3 hPa 0,0 l/m 5,4 km/h (1 Bft) SO 135 6,9 C 7,7 C
10.11.2012 19:16 8,3 C 91 % 1003,4 hPa 0,0 l/m 7,2 km/h (2 Bft) SO 135 6,9 C 7,2 C
10.11.2012 19:21 8,3 C 91 % 1003,4 hPa 0,0 l/m 3,2 km/h (1 Bft) SO 135 6,9 C 8,3 C
10.11.2012 19:26 8,3 C 91 % 1003,4 hPa 0,0 l/m 3,2 km/h (1 Bft) SO 135 6,9 C 8,3 C
10.11.2012 19:31 8,4 C 91 % 1003,4 hPa 0,0 l/m 5,8 km/h (2 Bft) SO 135 7,0 C 7,7 C
10.11.2012 19:36 8,4 C 91 % 1003,3 hPa 0,0 l/m 2,2 km/h (1 Bft) SO 135 7,0 C 8,4 C
10.11.2012 19:41 8,4 C 91 % 1003,3 hPa 0,0 l/m 3,2 km/h (1 Bft) S-SO 157 7,0 C 8,4 C
10.11.2012 19:46 8,4 C 91 % 1003,3 hPa 0,0 l/m 2,5 km/h (1 Bft) SO 135 7,0 C 8,4 C
10.11.2012 19:51 8,4 C 91 % 1003,3 hPa 0,0 l/m 8,6 km/h (2 Bft) S-SO 157 7,0 C 7,0 C
10.11.2012 19:56 8,4 C 91 % 1003,3 hPa 0,0 l/m 5,8 km/h (2 Bft) SO 135 7,0 C 7,7 C
10.11.2012 20:01 8,4 C 91 % 1003,4 hPa 0,0 l/m 7,9 km/h (2 Bft) SO 135 7,0 C 7,2 C
10.11.2012 20:06 8,4 C 91 % 1003,3 hPa 0,0 l/m 4,7 km/h (1 Bft) S-SO 157 7,0 C 8,0 C
10.11.2012 20:11 8,4 C 91 % 1003,4 hPa 0,0 l/m 6,1 km/h (2 Bft) SO 135 7,0 C 7,6 C
10.11.2012 20:16 8,4 C 91 % 1003,6 hPa 0,0 l/m 4,7 km/h (1 Bft) S-SO 157 7,0 C 8,0 C
10.11.2012 20:21 8,4 C 91 % 1003,4 hPa 0,0 l/m 3,2 km/h (1 Bft) S-SO 157 7,0 C 8,4 C
10.11.2012 20:26 8,4 C 91 % 1003,4 hPa 0,0 l/m 2,9 km/h (1 Bft) S-SO 157 7,0 C 8,4 C
10.11.2012 20:31 8,4 C 91 % 1003,4 hPa 0,0 l/m 10,8 km/h (2 Bft) SO 135 7,0 C 6,6 C
10.11.2012 20:36 8,3 C 91 % 1003,4 hPa 0,0 l/m 5,0 km/h (1 Bft) S-SO 157 6,9 C 7,8 C
10.11.2012 20:41 8,3 C 91 % 1003,5 hPa 0,0 l/m 2,9 km/h (1 Bft) SO 135 6,9 C 8,3 C
10.11.2012 20:46 8,3 C 91 % 1003,3 hPa 0,0 l/m 5,8 km/h (2 Bft) SO 135 6,9 C 7,6 C
10.11.2012 20:51 8,3 C 91 % 1003,2 hPa 0,0 l/m 0,0 km/h (0 Bft) SO 135 6,9 C 8,3 C
10.11.2012 20:56 8,3 C 91 % 1003,0 hPa 0,0 l/m 4,3 km/h (1 Bft) SO 135 6,9 C 8,3 C
10.11.2012 21:01 8,2 C 91 % 1003,0 hPa 0,0 l/m 7,6 km/h (2 Bft) O-SO 112 6,8 C 7,0 C
10.11.2012 21:06 8,2 C 91 % 1003,0 hPa 0,0 l/m 4,0 km/h (1 Bft) SO 135 6,8 C 8,2 C
10.11.2012 21:11 8,1 C 91 % 1002,6 hPa 0,0 l/m 3,6 km/h (1 Bft) SO 135 6,7 C 8,1 C
10.11.2012 21:16 8,1 C 91 % 1003,0 hPa 0,0 l/m 9,7 km/h (2 Bft) SO 135 6,7 C 6,4 C
10.11.2012 21:21 7,9 C 91 % 1003,0 hPa 0,0 l/m 14,4 km/h (3 Bft) SO 135 6,5 C 5,4 C
10.11.2012 21:26 7,9 C 91 % 1003,0 hPa 0,0 l/m 8,6 km/h (2 Bft) SO 135 6,5 C 6,4 C
10.11.2012 21:31 7,9 C 91 % 1003,2 hPa 0,0 l/m 1,1 km/h (1 Bft) SO 135 6,5 C 7,9 C
10.11.2012 21:36 7,8 C 91 % 1003,4 hPa 0,0 l/m 3,6 km/h (1 Bft) S 180 6,4 C 7,8 C
10.11.2012 21:41 7,8 C 91 % 1003,6 hPa 0,0 l/m 9,4 km/h (2 Bft) S-SO 157 6,4 C 6,1 C
10.11.2012 21:46 7,8 C 91 % 1003,3 hPa 0,0 l/m 1,8 km/h (1 Bft) S-SO 157 6,4 C 7,8 C
10.11.2012 21:51 7,8 C 91 % 1003,0 hPa 0,0 l/m 0,0 km/h (0 Bft) O-SO 112 6,4 C 7,8 C
10.11.2012 21:56 7,8 C 91 % 1003,0 hPa 0,0 l/m 6,1 km/h (2 Bft) SO 135 6,4 C 6,9 C
10.11.2012 22:01 7,8 C 91 % 1003,3 hPa 0,0 l/m 4,7 km/h (1 Bft) SO 135 6,4 C 7,4 C
10.11.2012 22:06 7,6 C 90 % 1003,0 hPa 0,0 l/m 3,2 km/h (1 Bft) S-SO 157 6,1 C 7,6 C
10.11.2012 22:11 7,6 C 90 % 1003,1 hPa 0,0 l/m 4,7 km/h (1 Bft) S-SO 157 6,1 C 7,1 C
10.11.2012 22:16 7,6 C 90 % 1003,2 hPa 0,0 l/m 1,4 km/h (1 Bft) S-SO 157 6,1 C 7,6 C
10.11.2012 22:21 7,5 C 90 % 1003,5 hPa 0,0 l/m 4,7 km/h (1 Bft) S-SO 157 6,0 C 7,0 C
10.11.2012 22:26 7,5 C 91 % 1003,3 hPa 0,0 l/m 7,2 km/h (2 Bft) O-SO 112 6,1 C 6,3 C
10.11.2012 22:31 7,5 C 91 % 1003,2 hPa 0,0 l/m 3,2 km/h (1 Bft) SO 135 6,1 C 7,5 C
10.11.2012 22:36 7,5 C 91 % 1003,3 hPa 0,0 l/m 5,0 km/h (1 Bft) S-SO 157 6,1 C 6,9 C
10.11.2012 22:41 7,5 C 91 % 1003,3 hPa 0,0 l/m 2,5 km/h (1 Bft) S-SO 157 6,1 C 7,5 C
10.11.2012 22:46 7,5 C 91 % 1003,1 hPa 0,0 l/m 7,2 km/h (2 Bft) O-SO 112 6,1 C 6,3 C
10.11.2012 22:51 7,5 C 91 % 1003,0 hPa 0,0 l/m 7,6 km/h (2 Bft) SO 135 6,1 C 6,2 C
10.11.2012 22:56 7,5 C 91 % 1003,0 hPa 0,0 l/m 12,2 km/h (2 Bft) SO 135 6,1 C 5,3 C
10.11.2012 23:01 7,5 C 91 % 1002,7 hPa 0,0 l/m 4,3 km/h (1 Bft) S-SO 157 6,1 C 7,5 C
10.11.2012 23:06 7,5 C 91 % 1002,8 hPa 0,0 l/m 3,6 km/h (1 Bft) SO 135 6,1 C 7,5 C
10.11.2012 23:11 7,5 C 91 % 1002,7 hPa 0,0 l/m 4,0 km/h (1 Bft) S-SO 157 6,1 C 7,5 C
10.11.2012 23:16 7,6 C 91 % 1002,8 hPa 0,0 l/m 0,0 km/h (0 Bft) S-SO 157 6,2 C 7,6 C
10.11.2012 23:21 7,6 C 91 % 1003,0 hPa 0,0 l/m 3,6 km/h (1 Bft) S-SO 157 6,2 C 7,6 C
10.11.2012 23:26 7,6 C 91 % 1002,9 hPa 0,0 l/m 2,9 km/h (1 Bft) SO 135 6,2 C 7,6 C
10.11.2012 23:31 7,5 C 91 % 1003,0 hPa 0,0 l/m 3,6 km/h (1 Bft) S-SO 157 6,1 C 7,5 C
10.11.2012 23:36 7,6 C 90 % 1003,2 hPa 0,0 l/m 3,6 km/h (1 Bft) S-SO 157 6,1 C 7,6 C
10.11.2012 23:41 7,6 C 90 % 1003,2 hPa 0,0 l/m 4,3 km/h (1 Bft) S 180 6,1 C 7,6 C
10.11.2012 23:46 7,6 C 90 % 1003,2 hPa 0,0 l/m 0,0 km/h (0 Bft) SO 135 6,1 C 7,6 C
10.11.2012 23:51 7,6 C 90 % 1003,3 hPa 0,0 l/m 3,2 km/h (1 Bft) S-SO 157 6,1 C 7,6 C
10.11.2012 23:56 7,6 C 90 % 1003,4 hPa 0,0 l/m 0,0 km/h (0 Bft) S-SO 157 6,1 C 7,6 C
_ Min-Zeit 07:31 11:26 21:11 - 03:56 - - 07:31 05:31
Minimum _ 4,1 C 75 % 1002,6 hPa - 0,0 km/h (0 Bft) - - 2,0 C 1,6 C
_ Max-Zeit 14:51 18:36 00:16 16:26 05:31 - - 18:36 14:56
Maximum _ 9,5 C 91 % 1012,7 hPa 0,5 l/m 16,9 km/h
SO (3 Bft)
- - 7,0 C 9,5 C
Durchschnitt _ 7,4 C 84 % 1006,3 hPa #3,1 l/m 5,1 km/h (1 Bft) SO - 4,8 C 6,8 C
(c) by David Heller